createdAt,value
2023-01-20T00:01:48.487Z,100.00
2023-01-20T00:04:15.806Z,100.00
2023-01-20T00:06:42.824Z,100.00
2023-01-20T00:09:14.176Z,100.00
2023-01-20T00:11:41.079Z,100.00
2023-01-20T00:14:09.078Z,100.00
2023-01-20T00:16:36.376Z,100.00
2023-01-20T00:19:03.488Z,100.00
2023-01-20T00:21:30.555Z,100.00
2023-01-20T00:23:57.625Z,100.00
2023-01-20T00:26:24.852Z,100.00
2023-01-20T00:28:54.098Z,100.00
2023-01-20T00:31:22.933Z,100.00
2023-01-20T00:33:51.429Z,100.00
2023-01-20T00:36:19.364Z,100.00
2023-01-20T00:38:46.415Z,100.00
2023-01-20T00:41:13.648Z,100.00
2023-01-20T00:43:46.035Z,100.00
2023-01-20T00:46:13.502Z,100.00
2023-01-20T00:48:40.532Z,100.00
2023-01-20T00:51:08.258Z,100.00
2023-01-20T00:53:35.612Z,100.00
2023-01-20T00:56:02.559Z,100.00
2023-01-20T00:58:29.565Z,100.00
2023-01-20T01:00:58.933Z,100.00
2023-01-20T01:03:28.211Z,100.00
2023-01-20T01:05:55.645Z,100.00
2023-01-20T01:08:22.639Z,100.00
2023-01-20T01:10:49.684Z,100.00
2023-01-20T01:13:16.738Z,100.00
2023-01-20T01:15:49.814Z,100.00
2023-01-20T01:18:17.082Z,100.00
2023-01-20T01:20:45.042Z,100.00
2023-01-20T01:23:12.759Z,100.00
2023-01-20T01:25:39.971Z,100.00
2023-01-20T01:28:06.973Z,100.00
2023-01-20T01:30:33.983Z,100.00
2023-01-20T01:33:01.303Z,100.00
2023-01-20T01:35:28.357Z,100.00
2023-01-20T01:37:55.507Z,100.00
2023-01-20T01:40:27.613Z,100.00
2023-01-20T01:42:54.716Z,100.00
2023-01-20T01:45:23.580Z,100.00
2023-01-20T01:47:56.433Z,100.00
2023-01-20T01:50:30.867Z,100.00
2023-01-20T01:53:02.932Z,100.00
2023-01-20T01:55:31.844Z,100.00
2023-01-20T01:57:58.857Z,100.00
2023-01-20T02:00:31.194Z,100.00
2023-01-20T02:02:58.216Z,100.00
2023-01-20T02:05:30.404Z,100.00
2023-01-20T02:07:57.387Z,100.00
2023-01-20T02:10:30.346Z,100.00
2023-01-20T02:12:57.277Z,100.00
2023-01-20T02:15:27.702Z,100.00
2023-01-20T02:18:16.206Z,100.00
2023-01-20T02:20:57.458Z,100.00
2023-01-20T02:23:53.461Z,100.00
2023-01-20T02:26:23.474Z,100.00
2023-01-20T02:28:59.521Z,100.00
2023-01-20T02:31:45.224Z,100.00
2023-01-20T02:34:25.954Z,100.00
2023-01-20T02:37:03.372Z,100.00
2023-01-20T02:39:44.692Z,100.00
2023-01-20T02:42:21.775Z,100.00
2023-01-20T02:45:00.193Z,100.00
2023-01-20T02:47:43.483Z,100.00
2023-01-20T02:50:23.431Z,100.00
2023-01-20T02:52:52.538Z,100.00
2023-01-20T02:55:25.612Z,100.00
2023-01-20T02:57:56.522Z,100.00
2023-01-20T03:00:25.997Z,100.00
2023-01-20T03:02:53.708Z,100.00
2023-01-20T03:05:22.620Z,100.00
2023-01-20T03:07:49.770Z,100.00
2023-01-20T03:10:18.784Z,100.00
2023-01-20T03:12:51.681Z,100.00
2023-01-20T03:15:21.203Z,100.00
2023-01-20T03:17:48.296Z,100.00
2023-01-20T03:20:20.642Z,100.00
2023-01-20T03:22:47.743Z,100.00
2023-01-20T03:25:15.387Z,100.00
2023-01-20T03:27:43.042Z,100.00
2023-01-20T03:30:16.785Z,100.00
2023-01-20T03:32:46.146Z,100.00
2023-01-20T03:35:16.516Z,100.00
2023-01-20T03:37:44.313Z,100.00
2023-01-20T03:40:17.121Z,100.00
2023-01-20T03:42:52.807Z,100.00
2023-01-20T03:45:27.386Z,100.00
2023-01-20T03:48:13.937Z,100.00
2023-01-20T03:50:47.991Z,100.00
2023-01-20T03:53:46.030Z,100.00
2023-01-20T03:56:25.816Z,100.00
2023-01-20T03:58:53.715Z,100.00
2023-01-20T04:01:22.875Z,100.00
2023-01-20T04:03:51.267Z,100.00
2023-01-20T04:06:25.087Z,100.00
2023-01-20T04:09:00.741Z,100.00
2023-01-20T04:11:28.163Z,100.00
2023-01-20T04:13:55.233Z,100.00
2023-01-20T04:16:22.277Z,100.00
2023-01-20T04:18:50.440Z,100.00
2023-01-20T04:21:31.245Z,100.00
2023-01-20T04:24:03.470Z,100.00
2023-01-20T04:26:30.355Z,100.00
2023-01-20T04:28:57.481Z,100.00
2023-01-20T04:31:30.705Z,100.00
2023-01-20T04:33:58.476Z,100.00
2023-01-20T04:36:25.584Z,100.00
2023-01-20T04:38:52.537Z,100.00
2023-01-20T04:41:19.542Z,100.00
2023-01-20T04:43:47.144Z,100.00
2023-01-20T04:46:14.895Z,100.00
2023-01-20T04:48:42.044Z,100.00
2023-01-20T04:51:09.112Z,100.00
2023-01-20T04:53:36.140Z,100.00
2023-01-20T04:56:03.188Z,100.00
2023-01-20T04:58:30.337Z,100.00
2023-01-20T05:00:57.368Z,100.00
2023-01-20T05:03:24.300Z,100.00
2023-01-20T05:05:54.880Z,100.00
2023-01-20T05:08:22.289Z,100.00
2023-01-20T05:10:49.434Z,100.00
2023-01-20T05:13:16.517Z,100.00
2023-01-20T05:15:48.801Z,100.00
2023-01-20T05:18:15.720Z,100.00
2023-01-20T05:20:45.688Z,100.00
2023-01-20T05:23:12.704Z,100.00
2023-01-20T05:25:39.993Z,100.00
2023-01-20T05:28:07.081Z,100.00
2023-01-20T05:30:34.126Z,100.00
2023-01-20T05:33:01.286Z,100.00
2023-01-20T05:35:28.362Z,100.00
2023-01-20T05:37:55.638Z,100.00
2023-01-20T05:40:22.538Z,100.00
2023-01-20T05:42:54.629Z,100.00
2023-01-20T05:45:21.706Z,100.00
2023-01-20T05:47:48.800Z,100.00
2023-01-20T05:50:16.466Z,100.00
2023-01-20T05:52:43.409Z,100.00
2023-01-20T05:55:10.319Z,100.00
2023-01-20T05:57:37.396Z,100.00
2023-01-20T06:00:11.140Z,100.00
2023-01-20T06:02:38.445Z,100.00
2023-01-20T06:05:06.367Z,100.00
2023-01-20T06:07:33.467Z,100.00
2023-01-20T06:10:01.337Z,100.00
2023-01-20T06:12:28.310Z,100.00
2023-01-20T06:14:55.328Z,100.00
2023-01-20T06:17:22.288Z,100.00
2023-01-20T06:19:49.395Z,100.00
2023-01-20T06:22:16.469Z,100.00
2023-01-20T06:24:43.469Z,100.00
2023-01-20T06:27:13.469Z,100.00
2023-01-20T06:29:40.596Z,100.00
2023-01-20T06:32:07.571Z,100.00
2023-01-20T06:34:34.490Z,100.00
2023-01-20T06:37:02.441Z,100.00
2023-01-20T06:39:29.620Z,100.00
2023-01-20T06:41:59.929Z,100.00
2023-01-20T06:44:27.241Z,100.00
2023-01-20T06:46:54.447Z,100.00
2023-01-20T06:49:21.471Z,100.00
2023-01-20T06:51:49.676Z,100.00
2023-01-20T06:54:16.743Z,100.00
2023-01-20T06:56:43.784Z,100.00
2023-01-20T06:59:11.656Z,100.00
2023-01-20T07:01:39.175Z,100.00
2023-01-20T07:04:06.819Z,100.00
2023-01-20T07:06:38.717Z,100.00
2023-01-20T07:09:06.945Z,100.00
2023-01-20T07:11:36.153Z,100.00
2023-01-20T11:25:25.196Z,54.91
2023-01-20T11:27:52.441Z,51.84
2023-01-20T11:30:22.258Z,52.30
2023-01-20T11:33:35.211Z,52.41
2023-01-20T11:36:29.421Z,50.76
2023-01-20T11:38:57.491Z,50.84
2023-01-20T11:41:25.517Z,51.60
2023-01-20T11:43:57.194Z,51.75
2023-01-20T11:46:28.514Z,50.98
2023-01-20T11:49:17.199Z,50.67
2023-01-20T11:51:54.521Z,50.15
2023-01-20T11:54:29.328Z,50.06
2023-01-20T11:57:04.188Z,49.78
2023-01-20T11:59:34.516Z,49.59
2023-01-20T12:02:20.806Z,49.46
2023-01-20T12:04:50.926Z,48.34
2023-01-20T12:07:25.468Z,48.08
2023-01-20T12:09:54.418Z,46.89
2023-01-20T12:12:52.446Z,46.65
2023-01-20T12:15:25.244Z,44.73
2023-01-20T12:18:02.864Z,45.25
2023-01-20T12:20:54.663Z,45.37
2023-01-20T12:23:22.528Z,45.54
2023-01-20T12:25:53.889Z,46.00
2023-01-20T12:28:42.671Z,45.47
2023-01-20T12:31:10.271Z,44.56
2023-01-20T12:33:38.963Z,43.98
2023-01-20T12:36:16.876Z,43.50
2023-01-20T12:39:08.723Z,42.94
2023-01-20T12:42:10.539Z,42.68
2023-01-20T12:44:57.883Z,42.61
2023-01-20T12:47:37.929Z,41.91
2023-01-20T12:50:42.119Z,42.16
2023-01-20T12:53:48.099Z,42.78
2023-01-20T12:56:33.662Z,43.05
2023-01-20T12:59:06.356Z,43.04
2023-01-20T13:01:52.271Z,43.80
2023-01-20T13:04:44.262Z,43.94
2023-01-20T13:07:32.819Z,43.87
2023-01-20T13:10:40.782Z,44.25
2023-01-20T13:13:24.043Z,44.53
2023-01-20T13:15:57.237Z,45.35
2023-01-20T13:19:03.197Z,46.02
2023-01-20T13:21:31.496Z,46.47
2023-01-20T13:24:02.740Z,46.48
2023-01-20T13:26:30.126Z,46.28
2023-01-20T13:28:57.410Z,46.37
2023-01-20T13:31:43.211Z,46.61
2023-01-20T13:34:22.666Z,46.63
2023-01-20T13:37:02.381Z,46.79
2023-01-20T13:39:29.281Z,47.03
2023-01-20T13:41:56.279Z,47.57
2023-01-20T13:44:33.820Z,48.54
2023-01-20T13:47:00.842Z,49.11
2023-01-20T13:49:29.310Z,50.19
2023-01-20T13:51:56.305Z,51.44
2023-01-20T13:54:28.441Z,52.94
2023-01-20T13:57:22.779Z,54.34
2023-01-20T13:59:50.151Z,55.93
2023-01-20T14:02:18.078Z,57.28
2023-01-20T14:04:45.753Z,59.25
2023-01-20T14:07:26.375Z,60.58
2023-01-20T14:09:55.904Z,62.69
2023-01-20T14:12:22.709Z,64.26
2023-01-20T14:14:51.593Z,65.56
2023-01-20T14:17:26.995Z,67.33
2023-01-20T14:19:54.920Z,68.38
2023-01-20T14:22:26.551Z,69.59
2023-01-20T14:24:58.560Z,70.82
2023-01-20T14:27:31.507Z,72.18
2023-01-20T14:30:22.780Z,73.73
2023-01-20T14:32:50.450Z,76.33
2023-01-20T14:35:23.504Z,77.72
2023-01-20T14:37:51.307Z,79.26
2023-01-20T14:40:32.028Z,80.47
2023-01-20T14:43:13.993Z,82.50
2023-01-20T14:45:43.096Z,84.84
2023-01-20T14:48:09.938Z,86.75
2023-01-20T14:50:38.123Z,88.49
2023-01-20T14:53:05.063Z,89.55
2023-01-20T14:55:36.342Z,91.01
2023-01-20T14:58:07.844Z,93.34
2023-01-20T15:00:44.267Z,96.13
2023-01-20T15:03:26.866Z,98.17
2023-01-20T15:05:54.075Z,99.96
2023-01-20T15:08:53.461Z,99.99
2023-01-20T15:11:30.747Z,100.00
2023-01-20T15:14:10.366Z,100.00
2023-01-20T15:16:48.841Z,100.00
2023-01-20T15:19:22.332Z,100.00
2023-01-20T15:22:04.729Z,100.00
2023-01-20T15:24:34.085Z,100.00
2023-01-20T15:27:01.368Z,100.00
2023-01-20T15:29:33.051Z,100.00
2023-01-20T15:32:01.668Z,100.00
2023-01-20T15:34:29.595Z,100.00
2023-01-20T15:36:56.640Z,100.00
2023-01-20T15:39:25.608Z,100.00
2023-01-20T15:41:56.516Z,100.00
2023-01-20T15:44:24.112Z,100.00
2023-01-20T15:46:51.399Z,100.00
2023-01-20T15:49:18.599Z,100.00
2023-01-20T15:51:45.727Z,100.00
2023-01-20T15:54:13.409Z,100.00
2023-01-20T15:56:41.419Z,100.00
2023-01-20T15:59:21.331Z,100.00
2023-01-20T16:01:51.108Z,100.00
2023-01-20T16:04:19.965Z,100.00
2023-01-20T16:06:46.840Z,100.00
2023-01-20T20:16:55.118Z,100.00
2023-01-20T20:19:22.369Z,100.00
2023-01-20T20:21:49.428Z,100.00
2023-01-20T20:24:17.994Z,100.00
2023-01-20T20:26:45.693Z,100.00
2023-01-20T20:29:13.937Z,100.00
2023-01-20T20:31:41.902Z,100.00
2023-01-20T20:34:12.185Z,100.00
2023-01-20T20:36:39.859Z,100.00
2023-01-20T20:39:07.824Z,100.00
2023-01-20T20:41:36.086Z,100.00
2023-01-20T20:44:03.404Z,100.00
2023-01-20T20:46:30.984Z,100.00
2023-01-20T20:48:59.105Z,100.00
2023-01-20T20:51:26.679Z,100.00
2023-01-20T20:53:57.817Z,100.00
2023-01-20T20:56:27.607Z,100.00
2023-01-20T20:59:01.416Z,100.00
2023-01-20T21:01:32.865Z,100.00
2023-01-20T21:04:01.430Z,100.00
2023-01-20T21:06:28.771Z,100.00
2023-01-20T21:08:55.817Z,100.00
2023-01-20T21:11:23.991Z,100.00
2023-01-20T21:13:51.936Z,100.00
2023-01-20T21:16:26.548Z,100.00
2023-01-20T21:18:55.630Z,100.00
2023-01-20T21:21:23.153Z,100.00
2023-01-20T21:23:53.227Z,100.00
2023-01-20T21:26:22.062Z,100.00
2023-01-20T21:28:49.024Z,100.00
2023-01-20T21:31:18.662Z,100.00
2023-01-20T21:33:48.830Z,100.00
2023-01-20T21:36:18.041Z,100.00
2023-01-20T21:38:51.148Z,100.00
2023-01-20T21:41:18.333Z,100.00
2023-01-20T21:44:10.408Z,100.00
2023-01-20T21:46:39.670Z,100.00
2023-01-20T21:49:27.360Z,100.00
2023-01-20T21:52:14.292Z,100.00
2023-01-20T21:54:41.702Z,100.00
2023-01-20T21:57:11.113Z,100.00
2023-01-20T21:59:38.810Z,100.00
2023-01-20T22:02:06.131Z,100.00
2023-01-20T22:04:33.401Z,100.00
2023-01-20T22:07:05.585Z,100.00
2023-01-20T22:09:33.018Z,100.00
2023-01-20T22:11:59.900Z,100.00
2023-01-20T22:14:26.849Z,100.00
2023-01-20T22:16:59.060Z,100.00
2023-01-20T22:19:26.243Z,100.00
2023-01-20T22:21:53.068Z,100.00
2023-01-20T22:24:20.049Z,100.00
2023-01-20T22:26:47.995Z,100.00
2023-01-20T22:29:15.614Z,100.00
2023-01-20T22:31:47.906Z,100.00
2023-01-20T22:34:14.838Z,100.00
2023-01-20T22:36:42.087Z,100.00
2023-01-20T22:39:09.561Z,100.00
2023-01-20T22:41:36.860Z,100.00
2023-01-20T22:44:03.702Z,100.00
2023-01-20T22:46:33.662Z,100.00
2023-01-20T22:49:00.671Z,100.00
2023-01-20T22:51:28.517Z,100.00
2023-01-20T22:54:01.471Z,100.00
2023-01-20T22:56:30.507Z,100.00
2023-01-20T22:58:58.033Z,100.00
2023-01-20T23:01:29.902Z,100.00
2023-01-20T23:04:02.984Z,100.00
2023-01-20T23:06:32.255Z,100.00
2023-01-20T23:09:00.835Z,100.00
2023-01-20T23:11:28.022Z,100.00
2023-01-20T23:13:55.278Z,100.00
2023-01-20T23:16:22.647Z,100.00
2023-01-20T23:18:50.971Z,100.00
2023-01-20T23:21:19.552Z,100.00
2023-01-20T23:23:46.922Z,100.00
2023-01-20T23:26:18.023Z,100.00
2023-01-20T23:28:45.617Z,100.00
2023-01-20T23:31:14.708Z,100.00
2023-01-20T23:33:46.949Z,100.00
2023-01-20T23:36:15.977Z,100.00
2023-01-20T23:38:43.325Z,100.00
2023-01-20T23:41:13.865Z,100.00
2023-01-20T23:43:41.751Z,100.00
2023-01-20T23:46:09.426Z,100.00
2023-01-20T23:48:42.159Z,100.00
2023-01-20T23:51:09.171Z,100.00
2023-01-20T23:53:37.705Z,100.00
2023-01-20T23:56:07.205Z,100.00
2023-01-20T23:58:34.578Z,100.00
